This is the latest recevied weather packets stored in our database for station/object YO6LRV-3. If no packets are shown the sender has not sent any weather packets the latest 10 day(s).
| Time | Temp. | Humidity | Pressure | Rain* | Wind** | Luminosity | Snow |
|---|---|---|---|---|---|---|---|
| 1777245646 | 6.11° C | 39% | 1021.2 hPa | - | - | - | - |
| 1777244746 | 6.11° C | 38% | 1021 hPa | - | - | - | - |
| 1777242946 | 6.67° C | 38% | 1020.8 hPa | - | - | - | - |
| 1777242046 | 7.22° C | 37% | 1021 hPa | - | - | - | - |
| 1777241146 | 7.22° C | 37% | 1021 hPa | - | - | - | - |
| 1777240245 | 7.22° C | 37% | 1021 hPa | - | - | - | - |
| 1777239345 | 7.78° C | 36% | 1020.9 hPa | - | - | - | - |
| 1777238445 | 7.78° C | 36% | 1020.6 hPa | - | - | - | - |
| 1777236645 | 7.78° C | 36% | 1020.4 hPa | - | - | - | - |
| 1777235745 | 8.33° C | 35% | 1020.4 hPa | - | - | - | - |
| 1777234845 | 8.33° C | 35% | 1019.8 hPa | - | - | - | - |
| 1777233045 | 8.89° C | 35% | 1019.6 hPa | - | - | - | - |
| 1777232144 | 8.33° C | 34% | 1018.5 hPa | - | - | - | - |
| 1777231244 | 8.89° C | 35% | 1018.7 hPa | - | - | - | - |
| 1777230346 | 9.44° C | 33% | 1018.7 hPa | - | - | - | - |
| 1777229446 | 10° C | 33% | 1018.7 hPa | - | - | - | - |
| 1777228546 | 10.56° C | 33% | 1018.5 hPa | - | - | - | - |
| 1777227646 | 10.56° C | 32% | 1018 hPa | - | - | - | - |
| 1777226746 | 10.56° C | 31% | 1017.4 hPa | - | - | - | - |
| 1777225846 | 11.11° C | 31% | 1017.4 hPa | - | - | - | - |
| 1777224946 | 11.67° C | 31% | 1017.1 hPa | - | - | - | - |
* Rain since midnight (hover to see other rain measurements)
** Current wind speed in m/s (hover to see current wind gust speed)